createdAt,value
2023-04-10T00:09:36.758Z,2.29
2023-04-10T00:54:51.339Z,1.8
2023-04-10T01:20:05.826Z,1.6
2023-04-10T01:25:07.753Z,1.57
2023-04-10T01:30:09.428Z,1.53
2023-04-10T01:35:11.280Z,1.51
2023-04-10T01:40:12.823Z,1.46
2023-04-10T01:45:14.219Z,1.42
2023-04-10T01:50:15.686Z,1.36
2023-04-10T01:55:17.013Z,1.32
2023-04-10T02:00:18.582Z,1.28
2023-04-10T02:05:20.084Z,1.25
2023-04-10T02:10:21.329Z,1.2
2023-04-10T02:15:22.800Z,1.15
2023-04-10T02:20:24.126Z,1.11
2023-04-10T02:25:26.236Z,1.1
2023-04-10T02:30:27.870Z,1.09
2023-04-10T02:35:37.576Z,0.98
2023-04-10T02:40:30.914Z,0.89
2023-04-10T02:45:32.620Z,0.81
2023-04-10T02:50:34.595Z,0.75
2023-04-10T02:55:36.439Z,0.71
2023-04-10T03:00:38.355Z,0.69
2023-04-10T03:10:41.311Z,0.68
2023-04-10T03:15:43.449Z,0.64
2023-04-10T03:20:45.432Z,0.62
2023-04-10T03:25:46.644Z,0.6
2023-04-10T03:30:48.310Z,0.57
2023-04-10T03:35:49.858Z,0.54
2023-04-10T03:40:51.132Z,0.51
2023-04-10T03:45:53.147Z,0.5
2023-04-10T03:50:54.494Z,0.5
2023-04-10T03:55:56.241Z,0.46
2023-04-10T04:00:57.659Z,0.39
2023-04-10T04:05:58.984Z,0.36
2023-04-10T04:11:00.639Z,0.34
2023-04-10T04:16:02.552Z,0.32
2023-04-10T04:21:04.620Z,0.32
2023-04-10T04:26:05.834Z,0.33
2023-04-10T04:31:07.480Z,0.34
2023-04-10T04:36:09.048Z,0.36
2023-04-10T04:41:11.113Z,0.37
2023-04-10T04:46:13.237Z,0.38
2023-04-10T04:51:15.020Z,0.38
2023-04-10T04:56:17.043Z,0.38
2023-04-10T05:01:18.341Z,0.41
2023-04-10T05:06:19.781Z,0.43
2023-04-10T05:11:30.790Z,0.46
2023-04-10T05:16:23.974Z,0.48
2023-04-10T05:21:26.010Z,0.52
2023-04-10T05:26:27.880Z,0.56
2023-04-10T05:31:29.248Z,0.65
2023-04-10T05:36:30.438Z,0.74
2023-04-10T05:41:31.818Z,0.85
2023-04-10T05:46:33.531Z,1
2023-04-10T05:51:35.568Z,1.15
2023-04-10T05:56:36.865Z,1.34
2023-04-10T06:01:38.778Z,1.52
2023-04-10T06:06:40.493Z,1.73
2023-04-10T06:11:42.633Z,1.93
2023-04-10T06:16:44.553Z,2.09
2023-04-10T06:21:46.584Z,2.29
2023-04-10T06:26:47.898Z,2.47
2023-04-10T06:31:49.280Z,2.66
2023-04-10T06:36:50.596Z,2.83
2023-04-10T06:41:52.370Z,3
2023-04-10T06:46:54.375Z,3.18
2023-04-10T06:51:56.095Z,3.36
2023-04-10T06:56:57.478Z,3.55
2023-04-10T07:01:59.225Z,3.72
2023-04-10T07:07:00.920Z,3.92
2023-04-10T07:12:02.959Z,4.11
2023-04-10T07:17:04.360Z,4.29
2023-04-10T07:22:06.036Z,4.5
2023-04-10T07:27:07.556Z,4.73
2023-04-10T07:32:09.426Z,4.91
2023-04-10T07:37:11.441Z,5.12
2023-04-10T07:42:13.642Z,5.33
2023-04-10T07:47:15.630Z,5.58
2023-04-10T07:52:17.497Z,5.78
2023-04-10T07:57:19.565Z,6.07
2023-04-10T08:02:21.741Z,6.29
2023-04-10T08:07:22.921Z,6.54
2023-04-10T08:12:24.470Z,6.8
2023-04-10T08:17:26.359Z,6.99
2023-04-10T08:22:28.452Z,7.21
2023-04-10T08:27:29.830Z,7.46
2023-04-10T08:32:31.352Z,7.73
2023-04-10T08:37:33.265Z,7.96
2023-04-10T08:42:35.714Z,8.39
2023-04-10T08:47:36.990Z,8.64
2023-04-10T08:52:38.698Z,8.92
2023-04-10T08:57:42.801Z,9.1
2023-04-10T09:02:42.639Z,9.31
2023-04-10T09:07:43.093Z,9.64
2023-04-10T09:12:44.916Z,9.95
2023-04-10T09:17:46.934Z,10.29
2023-04-10T09:22:48.996Z,10.5
2023-04-10T09:27:50.972Z,10.81
2023-04-10T09:32:52.360Z,11.15
2023-04-10T09:37:54.245Z,11.34
2023-04-10T09:42:56.166Z,11.56
2023-04-10T09:47:58.118Z,11.76
2023-04-10T09:52:59.424Z,11.97
2023-04-10T09:58:01.148Z,12.3
2023-04-10T10:03:03.130Z,12.7
2023-04-10T10:08:05.089Z,12.91
2023-04-10T10:13:06.764Z,13.09
2023-04-10T10:18:08.948Z,13.28
2023-04-10T10:23:11.016Z,13.49
2023-04-10T10:28:12.912Z,13.72
2023-04-10T10:33:14.325Z,13.89
2023-04-10T10:38:15.697Z,14.08
2023-04-10T10:43:17.755Z,14.28
2023-04-10T10:48:19.664Z,14.47
2023-04-10T10:53:21.736Z,14.8
2023-04-10T10:58:23.720Z,14.97
2023-04-10T11:03:25.163Z,15.15
2023-04-10T11:08:27.032Z,15.31
2023-04-10T11:13:28.682Z,15.48
2023-04-10T11:18:30.357Z,15.61
2023-04-10T11:23:32.069Z,15.76
2023-04-10T11:28:34.195Z,15.91
2023-04-10T11:33:36.114Z,16.1
2023-04-10T11:38:37.751Z,16.25
2023-04-10T11:43:39.485Z,16.42
2023-04-10T11:48:41.220Z,16.64
2023-04-10T11:53:42.983Z,16.83
2023-04-10T11:58:44.541Z,16.96
2023-04-10T12:03:46.095Z,17.16
2023-04-10T12:08:48.085Z,17.35
2023-04-10T12:13:49.845Z,17.57
2023-04-10T12:18:51.416Z,17.91
2023-04-10T12:23:53.351Z,18.44
2023-04-10T12:28:54.940Z,19.11
2023-04-10T12:33:55.963Z,19.94
2023-04-10T12:38:57.955Z,20.74
2023-04-10T12:43:59.348Z,21.59
2023-04-10T12:49:00.817Z,22.49
2023-04-10T12:54:02.734Z,23.29
2023-04-10T13:39:19.135Z,23.5
2023-04-10T13:49:23.326Z,23.6
2023-04-10T14:14:31.360Z,23.51
2023-04-10T14:19:32.776Z,23.94
2023-04-10T14:34:38.025Z,25.72
2023-04-10T14:39:39.924Z,26.71
2023-04-10T15:19:52.160Z,28.91
2023-04-10T15:24:53.632Z,28.76
2023-04-10T15:55:03.817Z,26.83
2023-04-10T16:00:05.855Z,26.67
2023-04-10T16:05:07.385Z,26.42
2023-04-10T16:10:09.458Z,26.21
2023-04-10T16:15:11.054Z,25.77
2023-04-10T16:20:12.852Z,25.49
2023-04-10T16:25:14.825Z,24.95
2023-04-10T16:30:16.999Z,24.56
2023-04-10T16:35:18.309Z,23.82
2023-04-10T16:40:19.821Z,23.03
2023-04-10T16:45:21.683Z,22.25
2023-04-10T16:50:23.010Z,21.43
2023-04-10T16:55:26.875Z,20.65
2023-04-10T17:00:26.748Z,19.92
2023-04-10T17:05:28.325Z,19.25
2023-04-10T17:10:29.768Z,18.57
2023-04-10T17:15:31.068Z,17.79
2023-04-10T17:20:33.074Z,17.09
2023-04-10T17:25:34.726Z,16.36
2023-04-10T17:30:36.424Z,15.7
2023-04-10T17:35:38.351Z,15.04
2023-04-10T17:40:40.378Z,14.46
2023-04-10T17:45:41.818Z,13.93
2023-04-10T17:50:51.609Z,13.38
2023-04-10T17:55:59.913Z,12.9
2023-04-10T18:01:01.753Z,12.37
2023-04-10T18:06:03.652Z,12.03
2023-04-10T18:11:07.848Z,11.67
2023-04-10T18:16:06.985Z,11.28
2023-04-10T18:21:08.510Z,10.96
2023-04-10T18:26:10.458Z,10.74
2023-04-10T18:31:12.346Z,10.54
2023-04-10T18:36:14.299Z,10.34
2023-04-10T18:41:16.478Z,10.18
2023-04-10T18:46:18.208Z,10.04
2023-04-10T18:51:20.264Z,9.92
2023-04-10T18:56:22.384Z,9.77
2023-04-10T19:01:23.653Z,9.6
2023-04-10T19:06:25.421Z,9.47
2023-04-10T19:11:27.220Z,9.29
2023-04-10T19:16:29.050Z,9.22
2023-04-10T19:21:31.156Z,9.17
2023-04-10T19:26:33.151Z,9.07
2023-04-10T19:31:35.034Z,9.02
2023-04-10T19:36:36.905Z,8.96
2023-04-10T19:41:38.176Z,8.85
2023-04-10T19:46:39.662Z,8.71
2023-04-10T19:51:41.031Z,8.59
2023-04-10T19:56:42.847Z,8.5
2023-04-10T20:01:44.116Z,8.43
2023-04-10T20:06:46.070Z,8.35
2023-04-10T20:11:47.697Z,8.35
2023-04-10T20:16:48.980Z,8.35
2023-04-10T20:21:50.633Z,8.34
2023-04-10T20:26:52.891Z,8.35
2023-04-10T20:31:54.662Z,8.35
2023-04-10T20:36:56.011Z,8.24
2023-04-10T20:41:57.712Z,8.06
2023-04-10T20:46:59.010Z,7.94
2023-04-10T20:52:00.305Z,7.9
2023-04-10T20:57:01.692Z,7.77
2023-04-10T21:02:08.760Z,7.67
2023-04-10T21:07:05.074Z,7.66
2023-04-10T21:12:07.116Z,7.64
2023-04-10T21:17:09.076Z,7.61
2023-04-10T21:22:10.394Z,7.59
2023-04-10T21:27:12.296Z,7.53
2023-04-10T21:32:13.697Z,7.43
2023-04-10T21:37:15.749Z,7.34
2023-04-10T21:42:17.464Z,7.27
2023-04-10T21:47:18.766Z,7.23
2023-04-10T21:52:20.648Z,7.2
2023-04-10T21:57:22.316Z,7.14
2023-04-10T22:02:23.901Z,7.08
2023-04-10T22:07:25.119Z,7.06
2023-04-10T22:12:26.859Z,7
2023-04-10T22:17:28.489Z,6.92
2023-04-10T22:22:30.541Z,6.85
2023-04-10T22:27:31.811Z,6.79
2023-04-10T22:32:33.726Z,6.78
2023-04-10T22:37:35.713Z,6.71
2023-04-10T22:42:37.660Z,6.71
2023-04-10T22:47:39.405Z,6.67
2023-04-10T22:52:40.976Z,6.63
2023-04-10T22:57:43.080Z,6.6
2023-04-10T23:02:44.411Z,6.57
2023-04-10T23:07:45.527Z,6.54
2023-04-10T23:12:47.211Z,6.52
2023-04-10T23:17:48.724Z,6.53
2023-04-10T23:22:50.285Z,6.52
2023-04-10T23:27:52.302Z,6.48
2023-04-10T23:32:53.876Z,6.45
2023-04-10T23:37:55.909Z,6.4
2023-04-10T23:42:57.612Z,6.39
2023-04-10T23:47:59.415Z,6.4
2023-04-10T23:53:00.744Z,6.46
2023-04-10T23:58:02.912Z,6.45
